sensor_id;sensor_type;location;lat;lon;timestamp;temperature;humidity
61092;DHT22;46975;51.898;11.444;2022-08-19T00:01:50;20.80;99.90
61092;DHT22;46975;51.898;11.444;2022-08-19T00:04:18;20.80;99.90
61092;DHT22;46975;51.898;11.444;2022-08-19T00:06:46;20.70;99.90
61092;DHT22;46975;51.898;11.444;2022-08-19T00:09:14;20.70;99.90
61092;DHT22;46975;51.898;11.444;2022-08-19T00:11:40;20.70;99.90
61092;DHT22;46975;51.898;11.444;2022-08-19T00:14:08;20.70;99.90
61092;DHT22;46975;51.898;11.444;2022-08-19T00:16:36;20.70;99.90
61092;DHT22;46975;51.898;11.444;2022-08-19T00:19:03;20.70;99.90
61092;DHT22;46975;51.898;11.444;2022-08-19T00:21:29;20.70;99.90
61092;DHT22;46975;51.898;11.444;2022-08-19T00:23:55;20.70;99.90
61092;DHT22;46975;51.898;11.444;2022-08-19T00:26:27;20.70;99.90
61092;DHT22;46975;51.898;11.444;2022-08-19T00:28:52;20.70;99.90
61092;DHT22;46975;51.898;11.444;2022-08-19T00:31:18;20.70;99.90
61092;DHT22;46975;51.898;11.444;2022-08-19T00:33:44;20.70;99.90
61092;DHT22;46975;51.898;11.444;2022-08-19T00:36:10;20.70;99.90
61092;DHT22;46975;51.898;11.444;2022-08-19T00:38:38;20.70;99.90
61092;DHT22;46975;51.898;11.444;2022-08-19T00:41:06;20.70;99.90
61092;DHT22;46975;51.898;11.444;2022-08-19T00:43:33;20.70;99.90
61092;DHT22;46975;51.898;11.444;2022-08-19T00:45:59;20.70;99.90
61092;DHT22;46975;51.898;11.444;2022-08-19T00:48:25;20.70;99.90
61092;DHT22;46975;51.898;11.444;2022-08-19T00:50:52;20.70;99.90
61092;DHT22;46975;51.898;11.444;2022-08-19T00:53:21;20.70;99.90
61092;DHT22;46975;51.898;11.444;2022-08-19T00:55:51;20.60;99.90
61092;DHT22;46975;51.898;11.444;2022-08-19T00:58:19;20.60;99.90
61092;DHT22;46975;51.898;11.444;2022-08-19T01:00:47;20.60;99.90
61092;DHT22;46975;51.898;11.444;2022-08-19T01:03:16;20.60;99.90
61092;DHT22;46975;51.898;11.444;2022-08-19T01:05:43;20.60;99.90
61092;DHT22;46975;51.898;11.444;2022-08-19T01:08:11;20.60;99.90
61092;DHT22;46975;51.898;11.444;2022-08-19T01:10:42;20.60;99.90
61092;DHT22;46975;51.898;11.444;2022-08-19T01:13:08;20.60;99.90
61092;DHT22;46975;51.898;11.444;2022-08-19T01:15:40;20.50;99.90
61092;DHT22;46975;51.898;11.444;2022-08-19T01:18:09;20.60;99.90
61092;DHT22;46975;51.898;11.444;2022-08-19T01:20:35;20.60;99.90
61092;DHT22;46975;51.898;11.444;2022-08-19T01:23:01;20.60;99.90
61092;DHT22;46975;51.898;11.444;2022-08-19T01:25:40;20.50;99.90
61092;DHT22;46975;51.898;11.444;2022-08-19T01:28:07;20.50;99.90
61092;DHT22;46975;51.898;11.444;2022-08-19T01:30:35;20.50;99.90
61092;DHT22;46975;51.898;11.444;2022-08-19T01:33:01;20.50;99.90
61092;DHT22;46975;51.898;11.444;2022-08-19T01:35:28;20.50;99.90
61092;DHT22;46975;51.898;11.444;2022-08-19T01:38:04;20.50;99.90
61092;DHT22;46975;51.898;11.444;2022-08-19T01:40:38;20.40;99.90
61092;DHT22;46975;51.898;11.444;2022-08-19T01:43:05;20.40;99.90
61092;DHT22;46975;51.898;11.444;2022-08-19T01:45:33;20.40;99.90
61092;DHT22;46975;51.898;11.444;2022-08-19T01:48:00;20.40;99.90
61092;DHT22;46975;51.898;11.444;2022-08-19T01:50:26;20.40;99.90
61092;DHT22;46975;51.898;11.444;2022-08-19T01:52:52;20.50;99.90
61092;DHT22;46975;51.898;11.444;2022-08-19T01:55:20;20.50;99.90
61092;DHT22;46975;51.898;11.444;2022-08-19T01:57:48;20.50;99.90
61092;DHT22;46975;51.898;11.444;2022-08-19T02:00:18;20.50;99.90
61092;DHT22;46975;51.898;11.444;2022-08-19T02:02:44;20.50;99.90
61092;DHT22;46975;51.898;11.444;2022-08-19T02:05:10;20.50;99.90
61092;DHT22;46975;51.898;11.444;2022-08-19T02:07:36;20.50;99.90
61092;DHT22;46975;51.898;11.444;2022-08-19T02:10:04;20.50;99.90
61092;DHT22;46975;51.898;11.444;2022-08-19T02:12:30;20.50;99.90
61092;DHT22;46975;51.898;11.444;2022-08-19T02:14:56;20.40;99.90
61092;DHT22;46975;51.898;11.444;2022-08-19T02:17:21;20.40;99.90
61092;DHT22;46975;51.898;11.444;2022-08-19T02:19:47;20.40;99.90
61092;DHT22;46975;51.898;11.444;2022-08-19T02:22:14;20.40;99.90
61092;DHT22;46975;51.898;11.444;2022-08-19T02:24:39;20.40;99.90
61092;DHT22;46975;51.898;11.444;2022-08-19T02:27:05;20.40;99.90
61092;DHT22;46975;51.898;11.444;2022-08-19T02:29:31;20.40;99.90
61092;DHT22;46975;51.898;11.444;2022-08-19T02:31:56;20.30;99.90
61092;DHT22;46975;51.898;11.444;2022-08-19T02:34:22;20.30;99.90
61092;DHT22;46975;51.898;11.444;2022-08-19T02:36:50;20.30;99.90
61092;DHT22;46975;51.898;11.444;2022-08-19T02:39:16;20.30;99.90
61092;DHT22;46975;51.898;11.444;2022-08-19T02:41:42;20.20;99.90
61092;DHT22;46975;51.898;11.444;2022-08-19T02:44:07;20.20;99.90
61092;DHT22;46975;51.898;11.444;2022-08-19T02:46:34;20.20;99.90
61092;DHT22;46975;51.898;11.444;2022-08-19T02:49:05;20.10;99.90
61092;DHT22;46975;51.898;11.444;2022-08-19T02:51:34;20.20;99.90
61092;DHT22;46975;51.898;11.444;2022-08-19T02:54:01;20.20;99.90
61092;DHT22;46975;51.898;11.444;2022-08-19T02:56:26;20.10;99.90
61092;DHT22;46975;51.898;11.444;2022-08-19T02:58:54;20.10;99.90
61092;DHT22;46975;51.898;11.444;2022-08-19T03:01:31;20.10;99.90
61092;DHT22;46975;51.898;11.444;2022-08-19T03:04:00;20.10;99.90
61092;DHT22;46975;51.898;11.444;2022-08-19T03:06:27;20.10;99.90
61092;DHT22;46975;51.898;11.444;2022-08-19T03:08:53;20.10;99.90
61092;DHT22;46975;51.898;11.444;2022-08-19T03:11:25;20.10;99.90
61092;DHT22;46975;51.898;11.444;2022-08-19T03:13:51;20.10;99.90
61092;DHT22;46975;51.898;11.444;2022-08-19T03:16:20;20.10;99.90
61092;DHT22;46975;51.898;11.444;2022-08-19T03:18:46;20.10;99.90
61092;DHT22;46975;51.898;11.444;2022-08-19T03:21:17;20.10;99.90
61092;DHT22;46975;51.898;11.444;2022-08-19T03:23:43;20.20;99.90
61092;DHT22;46975;51.898;11.444;2022-08-19T03:26:09;20.10;99.90
61092;DHT22;46975;51.898;11.444;2022-08-19T03:28:36;20.10;99.90
61092;DHT22;46975;51.898;11.444;2022-08-19T03:31:11;20.10;99.90
61092;DHT22;46975;51.898;11.444;2022-08-19T03:33:37;20.10;99.90
61092;DHT22;46975;51.898;11.444;2022-08-19T03:36:19;20.10;99.90
61092;DHT22;46975;51.898;11.444;2022-08-19T03:38:48;20.10;99.90
61092;DHT22;46975;51.898;11.444;2022-08-19T03:41:18;20.10;99.90
61092;DHT22;46975;51.898;11.444;2022-08-19T03:43:45;20.00;99.90
61092;DHT22;46975;51.898;11.444;2022-08-19T03:46:20;20.00;99.90
61092;DHT22;46975;51.898;11.444;2022-08-19T03:48:50;20.00;99.90
61092;DHT22;46975;51.898;11.444;2022-08-19T03:51:27;20.00;99.90
61092;DHT22;46975;51.898;11.444;2022-08-19T03:53:54;20.00;99.90
61092;DHT22;46975;51.898;11.444;2022-08-19T03:56:21;20.00;99.90
61092;DHT22;46975;51.898;11.444;2022-08-19T03:58:47;20.00;99.90
61092;DHT22;46975;51.898;11.444;2022-08-19T04:01:16;20.00;99.90
61092;DHT22;46975;51.898;11.444;2022-08-19T04:03:43;19.90;99.90
61092;DHT22;46975;51.898;11.444;2022-08-19T04:06:17;20.00;99.90
61092;DHT22;46975;51.898;11.444;2022-08-19T04:08:45;20.00;99.90
61092;DHT22;46975;51.898;11.444;2022-08-19T04:11:13;20.00;99.90
61092;DHT22;46975;51.898;11.444;2022-08-19T04:13:40;19.90;99.90
61092;DHT22;46975;51.898;11.444;2022-08-19T04:16:06;20.00;99.90
61092;DHT22;46975;51.898;11.444;2022-08-19T04:18:36;20.00;99.90
61092;DHT22;46975;51.898;11.444;2022-08-19T04:21:03;20.00;99.90
61092;DHT22;46975;51.898;11.444;2022-08-19T04:23:29;19.90;99.90
61092;DHT22;46975;51.898;11.444;2022-08-19T04:25:55;20.00;99.90
61092;DHT22;46975;51.898;11.444;2022-08-19T04:28:21;20.00;99.90
61092;DHT22;46975;51.898;11.444;2022-08-19T04:30:50;20.00;99.90
61092;DHT22;46975;51.898;11.444;2022-08-19T04:33:19;20.00;99.90
61092;DHT22;46975;51.898;11.444;2022-08-19T04:35:47;19.90;99.90
61092;DHT22;46975;51.898;11.444;2022-08-19T04:38:14;19.90;99.90
61092;DHT22;46975;51.898;11.444;2022-08-19T04:40:46;19.90;99.90
61092;DHT22;46975;51.898;11.444;2022-08-19T04:43:31;19.90;99.90
61092;DHT22;46975;51.898;11.444;2022-08-19T04:45:57;19.90;99.90
61092;DHT22;46975;51.898;11.444;2022-08-19T04:48:24;19.90;99.90
61092;DHT22;46975;51.898;11.444;2022-08-19T04:50:57;20.00;99.90
61092;DHT22;46975;51.898;11.444;2022-08-19T04:53:30;19.90;99.90
61092;DHT22;46975;51.898;11.444;2022-08-19T04:55:58;19.80;99.90
61092;DHT22;46975;51.898;11.444;2022-08-19T04:58:25;19.70;99.90
61092;DHT22;46975;51.898;11.444;2022-08-19T05:00:51;19.70;99.90
61092;DHT22;46975;51.898;11.444;2022-08-19T05:03:18;19.70;99.90
61092;DHT22;46975;51.898;11.444;2022-08-19T05:05:44;19.60;99.90
61092;DHT22;46975;51.898;11.444;2022-08-19T05:08:18;19.60;99.90
61092;DHT22;46975;51.898;11.444;2022-08-19T05:10:49;19.60;99.90
61092;DHT22;46975;51.898;11.444;2022-08-19T05:13:17;19.70;99.90
61092;DHT22;46975;51.898;11.444;2022-08-19T05:15:43;19.70;99.90
61092;DHT22;46975;51.898;11.444;2022-08-19T05:18:09;19.80;99.90
61092;DHT22;46975;51.898;11.444;2022-08-19T05:20:54;19.70;99.90
61092;DHT22;46975;51.898;11.444;2022-08-19T05:23:38;19.70;99.90
61092;DHT22;46975;51.898;11.444;2022-08-19T05:26:04;19.70;99.90
61092;DHT22;46975;51.898;11.444;2022-08-19T05:28:31;19.60;99.90
61092;DHT22;46975;51.898;11.444;2022-08-19T05:30:56;19.70;99.90
61092;DHT22;46975;51.898;11.444;2022-08-19T05:33:22;19.70;99.90
61092;DHT22;46975;51.898;11.444;2022-08-19T05:35:49;19.70;99.90
61092;DHT22;46975;51.898;11.444;2022-08-19T05:38:16;19.70;99.90
61092;DHT22;46975;51.898;11.444;2022-08-19T05:40:42;19.70;99.90
61092;DHT22;46975;51.898;11.444;2022-08-19T05:43:12;19.80;99.90
61092;DHT22;46975;51.898;11.444;2022-08-19T05:45:41;19.70;99.90
61092;DHT22;46975;51.898;11.444;2022-08-19T05:48:09;19.70;99.90
61092;DHT22;46975;51.898;11.444;2022-08-19T05:50:37;19.70;99.90
61092;DHT22;46975;51.898;11.444;2022-08-19T05:53:02;19.60;99.90
61092;DHT22;46975;51.898;11.444;2022-08-19T05:55:28;19.60;99.90
61092;DHT22;46975;51.898;11.444;2022-08-19T05:57:54;19.70;99.90
61092;DHT22;46975;51.898;11.444;2022-08-19T06:00:19;19.70;99.90
61092;DHT22;46975;51.898;11.444;2022-08-19T06:02:45;19.70;99.90
61092;DHT22;46975;51.898;11.444;2022-08-19T06:05:11;19.70;99.90
61092;DHT22;46975;51.898;11.444;2022-08-19T06:07:38;19.70;99.90
61092;DHT22;46975;51.898;11.444;2022-08-19T06:10:06;19.70;99.90
61092;DHT22;46975;51.898;11.444;2022-08-19T06:12:34;19.70;99.90
61092;DHT22;46975;51.898;11.444;2022-08-19T06:15:03;19.70;99.90
61092;DHT22;46975;51.898;11.444;2022-08-19T06:17:29;19.70;99.90
61092;DHT22;46975;51.898;11.444;2022-08-19T06:19:56;19.70;99.90
61092;DHT22;46975;51.898;11.444;2022-08-19T06:22:22;19.70;99.90
61092;DHT22;46975;51.898;11.444;2022-08-19T06:24:47;19.70;99.90
61092;DHT22;46975;51.898;11.444;2022-08-19T06:27:13;19.70;99.90
61092;DHT22;46975;51.898;11.444;2022-08-19T06:29:39;19.70;99.90
61092;DHT22;46975;51.898;11.444;2022-08-19T06:32:04;19.70;99.90
61092;DHT22;46975;51.898;11.444;2022-08-19T06:34:32;19.70;99.90
61092;DHT22;46975;51.898;11.444;2022-08-19T06:36:59;19.70;99.90
61092;DHT22;46975;51.898;11.444;2022-08-19T06:39:32;19.70;99.90
61092;DHT22;46975;51.898;11.444;2022-08-19T06:42:00;19.70;99.90
61092;DHT22;46975;51.898;11.444;2022-08-19T06:44:28;19.70;99.90
61092;DHT22;46975;51.898;11.444;2022-08-19T06:46:55;19.80;99.90
61092;DHT22;46975;51.898;11.444;2022-08-19T06:49:22;19.80;99.90
61092;DHT22;46975;51.898;11.444;2022-08-19T06:51:48;19.80;99.90
61092;DHT22;46975;51.898;11.444;2022-08-19T06:54:15;19.80;99.90
61092;DHT22;46975;51.898;11.444;2022-08-19T06:56:41;19.70;99.90
61092;DHT22;46975;51.898;11.444;2022-08-19T06:59:10;19.70;99.90
61092;DHT22;46975;51.898;11.444;2022-08-19T07:01:39;19.60;99.90
61092;DHT22;46975;51.898;11.444;2022-08-19T07:04:06;19.60;99.90
61092;DHT22;46975;51.898;11.444;2022-08-19T07:06:33;19.60;99.90
61092;DHT22;46975;51.898;11.444;2022-08-19T07:08:59;19.50;99.90
61092;DHT22;46975;51.898;11.444;2022-08-19T07:11:25;19.50;99.90
61092;DHT22;46975;51.898;11.444;2022-08-19T07:13:51;19.50;99.90
61092;DHT22;46975;51.898;11.444;2022-08-19T07:16:18;19.50;99.90
61092;DHT22;46975;51.898;11.444;2022-08-19T07:18:45;19.60;99.90
61092;DHT22;46975;51.898;11.444;2022-08-19T07:21:17;19.50;99.90
61092;DHT22;46975;51.898;11.444;2022-08-19T07:23:43;19.50;99.90
61092;DHT22;46975;51.898;11.444;2022-08-19T07:26:13;19.50;99.90
61092;DHT22;46975;51.898;11.444;2022-08-19T07:28:39;19.60;99.90
61092;DHT22;46975;51.898;11.444;2022-08-19T07:31:06;19.60;99.90
61092;DHT22;46975;51.898;11.444;2022-08-19T07:33:33;19.70;99.90
61092;DHT22;46975;51.898;11.444;2022-08-19T07:36:03;19.70;99.90
61092;DHT22;46975;51.898;11.444;2022-08-19T07:38:29;19.80;99.90
61092;DHT22;46975;51.898;11.444;2022-08-19T07:40:55;19.80;99.90
61092;DHT22;46975;51.898;11.444;2022-08-19T07:43:20;19.90;99.90
61092;DHT22;46975;51.898;11.444;2022-08-19T07:45:51;19.90;99.90
61092;DHT22;46975;51.898;11.444;2022-08-19T07:48:17;20.00;99.90
61092;DHT22;46975;51.898;11.444;2022-08-19T07:50:43;20.00;99.90
61092;DHT22;46975;51.898;11.444;2022-08-19T07:53:08;20.10;99.90
61092;DHT22;46975;51.898;11.444;2022-08-19T07:55:34;20.20;99.90
61092;DHT22;46975;51.898;11.444;2022-08-19T07:58:00;20.30;99.90
61092;DHT22;46975;51.898;11.444;2022-08-19T08:00:25;20.30;99.90
61092;DHT22;46975;51.898;11.444;2022-08-19T08:02:52;20.20;99.90
61092;DHT22;46975;51.898;11.444;2022-08-19T08:05:18;20.10;99.90
61092;DHT22;46975;51.898;11.444;2022-08-19T08:08:02;20.10;99.90
61092;DHT22;46975;51.898;11.444;2022-08-19T08:10:46;20.10;99.90
61092;DHT22;46975;51.898;11.444;2022-08-19T08:13:12;20.10;99.90
61092;DHT22;46975;51.898;11.444;2022-08-19T08:15:38;20.10;99.90
61092;DHT22;46975;51.898;11.444;2022-08-19T08:18:04;20.10;99.90
61092;DHT22;46975;51.898;11.444;2022-08-19T08:20:30;20.10;99.90
61092;DHT22;46975;51.898;11.444;2022-08-19T08:22:56;20.20;99.90
61092;DHT22;46975;51.898;11.444;2022-08-19T08:25:40;20.20;99.90
61092;DHT22;46975;51.898;11.444;2022-08-19T08:28:06;20.30;99.90
61092;DHT22;46975;51.898;11.444;2022-08-19T08:30:32;20.30;99.90
61092;DHT22;46975;51.898;11.444;2022-08-19T08:33:00;20.30;99.90
61092;DHT22;46975;51.898;11.444;2022-08-19T08:35:25;20.30;99.90
61092;DHT22;46975;51.898;11.444;2022-08-19T08:37:53;20.30;99.90
61092;DHT22;46975;51.898;11.444;2022-08-19T08:40:42;20.30;99.90
61092;DHT22;46975;51.898;11.444;2022-08-19T08:43:27;20.30;99.90
61092;DHT22;46975;51.898;11.444;2022-08-19T08:46:08;20.50;99.90
61092;DHT22;46975;51.898;11.444;2022-08-19T08:48:53;20.50;99.90
61092;DHT22;46975;51.898;11.444;2022-08-19T08:51:25;20.60;99.90
61092;DHT22;46975;51.898;11.444;2022-08-19T08:53:54;20.50;99.90
61092;DHT22;46975;51.898;11.444;2022-08-19T08:56:21;20.50;99.90
61092;DHT22;46975;51.898;11.444;2022-08-19T08:59:07;20.60;99.90
61092;DHT22;46975;51.898;11.444;2022-08-19T09:01:35;20.30;99.90
61092;DHT22;46975;51.898;11.444;2022-08-19T09:04:04;20.50;99.90
61092;DHT22;46975;51.898;11.444;2022-08-19T09:09:28;20.70;99.90
61092;DHT22;46975;51.898;11.444;2022-08-19T09:15:00;20.70;99.90
61092;DHT22;46975;51.898;11.444;2022-08-19T09:17:29;20.70;99.90
61092;DHT22;46975;51.898;11.444;2022-08-19T09:20:22;20.70;99.90
61092;DHT22;46975;51.898;11.444;2022-08-19T09:22:48;20.70;99.90
61092;DHT22;46975;51.898;11.444;2022-08-19T09:25:17;20.50;99.90
61092;DHT22;46975;51.898;11.444;2022-08-19T09:27:44;20.50;99.90
61092;DHT22;46975;51.898;11.444;2022-08-19T09:30:19;20.40;99.90
61092;DHT22;46975;51.898;11.444;2022-08-19T09:32:47;20.40;99.90
61092;DHT22;46975;51.898;11.444;2022-08-19T09:35:13;20.40;99.90
61092;DHT22;46975;51.898;11.444;2022-08-19T09:37:40;20.50;99.90
61092;DHT22;46975;51.898;11.444;2022-08-19T09:40:06;20.40;99.90
61092;DHT22;46975;51.898;11.444;2022-08-19T09:42:32;20.40;99.90
61092;DHT22;46975;51.898;11.444;2022-08-19T09:44:59;20.30;99.90
61092;DHT22;46975;51.898;11.444;2022-08-19T09:47:24;20.30;99.90
61092;DHT22;46975;51.898;11.444;2022-08-19T09:49:51;20.30;99.90
61092;DHT22;46975;51.898;11.444;2022-08-19T09:52:17;20.40;99.90
61092;DHT22;46975;51.898;11.444;2022-08-19T09:54:43;20.50;99.90
61092;DHT22;46975;51.898;11.444;2022-08-19T09:57:09;20.60;99.90
61092;DHT22;46975;51.898;11.444;2022-08-19T09:59:35;20.70;99.90
61092;DHT22;46975;51.898;11.444;2022-08-19T10:02:01;20.80;99.90
61092;DHT22;46975;51.898;11.444;2022-08-19T10:04:26;20.80;99.90
61092;DHT22;46975;51.898;11.444;2022-08-19T10:07:12;20.90;99.90
61092;DHT22;46975;51.898;11.444;2022-08-19T10:09:38;20.90;99.90
61092;DHT22;46975;51.898;11.444;2022-08-19T10:12:06;20.70;99.90
61092;DHT22;46975;51.898;11.444;2022-08-19T10:14:33;20.80;99.90
61092;DHT22;46975;51.898;11.444;2022-08-19T10:16:58;20.80;99.90
61092;DHT22;46975;51.898;11.444;2022-08-19T10:19:26;20.80;99.90
61092;DHT22;46975;51.898;11.444;2022-08-19T10:21:53;20.90;99.90
61092;DHT22;46975;51.898;11.444;2022-08-19T10:24:19;21.10;99.90
61092;DHT22;46975;51.898;11.444;2022-08-19T10:26:45;21.30;99.90
61092;DHT22;46975;51.898;11.444;2022-08-19T10:29:13;21.50;99.90
61092;DHT22;46975;51.898;11.444;2022-08-19T10:31:41;21.50;99.90
61092;DHT22;46975;51.898;11.444;2022-08-19T10:34:07;21.60;99.90
61092;DHT22;46975;51.898;11.444;2022-08-19T10:36:36;21.70;99.90
61092;DHT22;46975;51.898;11.444;2022-08-19T10:39:10;21.90;99.90
61092;DHT22;46975;51.898;11.444;2022-08-19T10:41:38;22.00;99.90
61092;DHT22;46975;51.898;11.444;2022-08-19T10:44:07;22.40;99.90
61092;DHT22;46975;51.898;11.444;2022-08-19T10:46:33;22.90;99.90
61092;DHT22;46975;51.898;11.444;2022-08-19T10:49:01;23.30;99.90
61092;DHT22;46975;51.898;11.444;2022-08-19T10:51:27;23.50;99.90
61092;DHT22;46975;51.898;11.444;2022-08-19T10:54:12;23.40;99.90
61092;DHT22;46975;51.898;11.444;2022-08-19T10:56:37;23.30;99.90
61092;DHT22;46975;51.898;11.444;2022-08-19T10:59:29;23.50;99.90
61092;DHT22;46975;51.898;11.444;2022-08-19T11:01:59;23.70;99.90
61092;DHT22;46975;51.898;11.444;2022-08-19T11:04:25;23.70;99.90
61092;DHT22;46975;51.898;11.444;2022-08-19T11:06:51;23.70;99.90
61092;DHT22;46975;51.898;11.444;2022-08-19T11:09:22;23.60;99.90
61092;DHT22;46975;51.898;11.444;2022-08-19T11:11:52;23.60;99.90
61092;DHT22;46975;51.898;11.444;2022-08-19T11:14:19;22.90;99.90
61092;DHT22;46975;51.898;11.444;2022-08-19T11:16:46;22.90;99.90
61092;DHT22;46975;51.898;11.444;2022-08-19T11:19:12;23.00;99.90
61092;DHT22;46975;51.898;11.444;2022-08-19T11:21:42;23.30;99.90
61092;DHT22;46975;51.898;11.444;2022-08-19T11:24:12;23.30;99.90
61092;DHT22;46975;51.898;11.444;2022-08-19T11:26:39;23.30;99.90
61092;DHT22;46975;51.898;11.444;2022-08-19T11:29:06;23.00;99.90
61092;DHT22;46975;51.898;11.444;2022-08-19T11:31:37;22.90;99.90
61092;DHT22;46975;51.898;11.444;2022-08-19T11:34:07;22.90;99.90
61092;DHT22;46975;51.898;11.444;2022-08-19T11:36:34;23.10;99.90
61092;DHT22;46975;51.898;11.444;2022-08-19T11:39:04;23.20;99.90
61092;DHT22;46975;51.898;11.444;2022-08-19T11:41:30;23.30;99.90
61092;DHT22;46975;51.898;11.444;2022-08-19T11:43:56;23.30;99.90
61092;DHT22;46975;51.898;11.444;2022-08-19T11:46:24;23.30;99.90
61092;DHT22;46975;51.898;11.444;2022-08-19T11:48:50;23.10;99.90
61092;DHT22;46975;51.898;11.444;2022-08-19T11:51:19;23.10;99.90
61092;DHT22;46975;51.898;11.444;2022-08-19T11:53:45;23.20;99.90
61092;DHT22;46975;51.898;11.444;2022-08-19T11:56:11;23.40;99.90
61092;DHT22;46975;51.898;11.444;2022-08-19T11:58:39;23.50;99.90
61092;DHT22;46975;51.898;11.444;2022-08-19T12:01:17;23.80;99.90
61092;DHT22;46975;51.898;11.444;2022-08-19T12:03:48;24.30;99.90
61092;DHT22;46975;51.898;11.444;2022-08-19T12:06:29;24.70;99.90
61092;DHT22;46975;51.898;11.444;2022-08-19T12:08:56;24.90;99.90
61092;DHT22;46975;51.898;11.444;2022-08-19T12:11:23;24.80;99.90
61092;DHT22;46975;51.898;11.444;2022-08-19T12:13:49;24.50;99.90
61092;DHT22;46975;51.898;11.444;2022-08-19T12:16:18;24.50;99.90
61092;DHT22;46975;51.898;11.444;2022-08-19T12:18:45;24.10;99.90
61092;DHT22;46975;51.898;11.444;2022-08-19T12:21:18;23.80;99.90
61092;DHT22;46975;51.898;11.444;2022-08-19T12:23:47;23.80;99.90
61092;DHT22;46975;51.898;11.444;2022-08-19T12:26:13;23.50;99.90
61092;DHT22;46975;51.898;11.444;2022-08-19T12:28:38;23.50;99.90
61092;DHT22;46975;51.898;11.444;2022-08-19T12:31:05;23.40;99.90
61092;DHT22;46975;51.898;11.444;2022-08-19T12:33:31;23.30;99.90
61092;DHT22;46975;51.898;11.444;2022-08-19T12:36:02;23.40;99.90
61092;DHT22;46975;51.898;11.444;2022-08-19T12:38:29;23.30;99.90
61092;DHT22;46975;51.898;11.444;2022-08-19T12:40:54;23.30;99.90
61092;DHT22;46975;51.898;11.444;2022-08-19T12:43:20;23.30;99.90
61092;DHT22;46975;51.898;11.444;2022-08-19T12:45:46;23.20;99.90
61092;DHT22;46975;51.898;11.444;2022-08-19T12:48:13;23.30;99.90
61092;DHT22;46975;51.898;11.444;2022-08-19T12:50:40;23.30;99.90
61092;DHT22;46975;51.898;11.444;2022-08-19T12:53:07;23.20;99.90
61092;DHT22;46975;51.898;11.444;2022-08-19T12:55:32;23.20;99.90
61092;DHT22;46975;51.898;11.444;2022-08-19T12:57:58;23.10;99.90
61092;DHT22;46975;51.898;11.444;2022-08-19T13:00:27;23.10;99.90
61092;DHT22;46975;51.898;11.444;2022-08-19T13:02:53;23.10;99.90
61092;DHT22;46975;51.898;11.444;2022-08-19T13:05:21;23.10;99.90
61092;DHT22;46975;51.898;11.444;2022-08-19T13:07:49;23.00;99.90
61092;DHT22;46975;51.898;11.444;2022-08-19T13:10:18;23.00;99.90
61092;DHT22;46975;51.898;11.444;2022-08-19T13:12:47;23.10;99.90
61092;DHT22;46975;51.898;11.444;2022-08-19T13:15:14;23.20;99.90
61092;DHT22;46975;51.898;11.444;2022-08-19T13:17:40;23.30;99.90
61092;DHT22;46975;51.898;11.444;2022-08-19T13:20:08;23.30;99.90
61092;DHT22;46975;51.898;11.444;2022-08-19T13:22:34;23.30;99.90
61092;DHT22;46975;51.898;11.444;2022-08-19T13:25:05;23.30;99.90
61092;DHT22;46975;51.898;11.444;2022-08-19T13:27:31;23.30;99.90
61092;DHT22;46975;51.898;11.444;2022-08-19T13:29:57;23.40;99.90
61092;DHT22;46975;51.898;11.444;2022-08-19T13:32:41;23.40;99.90
61092;DHT22;46975;51.898;11.444;2022-08-19T13:35:25;23.30;99.90
61092;DHT22;46975;51.898;11.444;2022-08-19T13:37:52;23.30;99.90
61092;DHT22;46975;51.898;11.444;2022-08-19T13:40:21;23.50;99.90
61092;DHT22;46975;51.898;11.444;2022-08-19T13:42:50;23.50;99.90
61092;DHT22;46975;51.898;11.444;2022-08-19T13:45:19;23.60;99.90
61092;DHT22;46975;51.898;11.444;2022-08-19T13:47:48;23.70;99.90
61092;DHT22;46975;51.898;11.444;2022-08-19T13:50:20;23.80;99.90
61092;DHT22;46975;51.898;11.444;2022-08-19T13:52:46;23.80;99.90
61092;DHT22;46975;51.898;11.444;2022-08-19T13:55:13;23.80;99.90
61092;DHT22;46975;51.898;11.444;2022-08-19T13:57:39;23.80;99.90
61092;DHT22;46975;51.898;11.444;2022-08-19T14:00:16;23.80;99.90
61092;DHT22;46975;51.898;11.444;2022-08-19T14:02:46;23.80;99.90
61092;DHT22;46975;51.898;11.444;2022-08-19T14:05:14;23.90;99.90
61092;DHT22;46975;51.898;11.444;2022-08-19T14:07:40;23.90;99.90
61092;DHT22;46975;51.898;11.444;2022-08-19T14:10:08;24.00;99.90
61092;DHT22;46975;51.898;11.444;2022-08-19T14:12:34;23.90;99.90
61092;DHT22;46975;51.898;11.444;2022-08-19T14:15:01;23.90;99.90
61092;DHT22;46975;51.898;11.444;2022-08-19T14:17:28;23.70;99.90
61092;DHT22;46975;51.898;11.444;2022-08-19T14:19:59;23.50;99.90
61092;DHT22;46975;51.898;11.444;2022-08-19T14:22:26;23.40;99.90
61092;DHT22;46975;51.898;11.444;2022-08-19T14:24:51;23.50;99.90
61092;DHT22;46975;51.898;11.444;2022-08-19T14:27:17;23.50;99.90
61092;DHT22;46975;51.898;11.444;2022-08-19T14:29:42;23.50;99.90
61092;DHT22;46975;51.898;11.444;2022-08-19T14:32:09;23.50;99.90
61092;DHT22;46975;51.898;11.444;2022-08-19T14:34:35;23.50;99.90
61092;DHT22;46975;51.898;11.444;2022-08-19T14:37:02;23.60;99.90
61092;DHT22;46975;51.898;11.444;2022-08-19T14:39:28;23.60;99.90
61092;DHT22;46975;51.898;11.444;2022-08-19T14:41:54;23.60;99.90
61092;DHT22;46975;51.898;11.444;2022-08-19T14:44:19;23.60;99.90
61092;DHT22;46975;51.898;11.444;2022-08-19T14:46:45;23.60;99.90
61092;DHT22;46975;51.898;11.444;2022-08-19T14:49:11;23.60;99.90
61092;DHT22;46975;51.898;11.444;2022-08-19T14:51:37;23.60;99.90
61092;DHT22;46975;51.898;11.444;2022-08-19T14:54:05;23.60;99.90
61092;DHT22;46975;51.898;11.444;2022-08-19T14:56:30;23.60;99.90
61092;DHT22;46975;51.898;11.444;2022-08-19T14:58:56;23.60;99.90
61092;DHT22;46975;51.898;11.444;2022-08-19T15:01:25;23.40;99.90
61092;DHT22;46975;51.898;11.444;2022-08-19T15:03:52;23.50;99.90
61092;DHT22;46975;51.898;11.444;2022-08-19T15:06:21;23.50;99.90
61092;DHT22;46975;51.898;11.444;2022-08-19T15:08:48;23.50;99.90
61092;DHT22;46975;51.898;11.444;2022-08-19T15:11:16;23.50;99.90
61092;DHT22;46975;51.898;11.444;2022-08-19T15:13:43;23.50;99.90
61092;DHT22;46975;51.898;11.444;2022-08-19T15:16:11;23.50;99.90
61092;DHT22;46975;51.898;11.444;2022-08-19T15:18:40;23.60;99.90
61092;DHT22;46975;51.898;11.444;2022-08-19T15:21:09;23.60;99.90
61092;DHT22;46975;51.898;11.444;2022-08-19T15:23:37;23.70;99.90
61092;DHT22;46975;51.898;11.444;2022-08-19T15:26:04;23.60;99.90
61092;DHT22;46975;51.898;11.444;2022-08-19T15:28:30;23.60;99.90